バンクーバー国際空港の過去48時間の天気

バンクーバー国際空港 (Vancouver International Air-Port)

現在時刻: 9/22 10:35 PDT (9/22 17:35 UTC) 以下の時間は現地時間です。

過去48時間のMETAR気象情報
時間 風向 風速(m/s) 視程 気温(℃) 湿度(%) 気圧(hPa) 天気現象
22 10:00 東南東 4 10km以上 16 82 1015.9
22 09:00 4 10km以上 15 88 1015.6
22 08:00 3 10km以上 14 94 1015.7
22 07:00 南東 3 10km以上 13 100 1015.3
22 06:00 4 10km以上 14 94 1015
22 05:00 東北東 2 10km以上 15 94 1014.9
22 04:00 南東 3 10km以上 14 94 1014.7
22 03:00 3 10km以上 15 94 1014.4
22 02:00 南東 3 10km以上 15 94 1014.5
22 01:43 2 10km以上 15 94 1014.4 弱い雨
22 01:07 2 10km以上 15 94 1014.6
22 00:49 東南東 2 10km以上 15 94 1014.7 弱い雨
22 00:00 東北東 2 10km以上 16 88 1014.6
21 23:17 静穏 0 10km以上 16 88 1014.5
21 23:00 3 10km以上 16 88 1014.4 弱い雨
21 22:44 東南東 3 10km以上 16 88 1014.5 弱い雨
21 22:00 北東 2 10km以上 16 88 1014.4
21 21:46 北北東 2 10km以上 16 82 1014.3
21 21:09 南南東 2 10km以上 17 77 1014.5 弱い雨
21 20:00 南東 1 10km以上 18 73 1013.9
21 19:00 3 10km以上 17 83 1013.8
21 18:00 南南西 3 10km以上 18 77 1013.8
21 17:43 4 10km以上 19 68 1013.7 弱い雨
21 17:00 4 10km以上 20 60 1013.7
21 16:00 南東 4 10km以上 20 64 1013.8
21 15:00 南南東 5 10km以上 21 56 1014
21 14:00 南東 3 10km以上 20 64 1014.2
21 13:00 東南東 3 10km以上 20 64 1014.4
21 12:00 東南東 4 10km以上 18 68 1014.9
21 11:00 4 10km以上 16 82 1014.9
21 10:00 4 10km以上 16 82 1014.9
21 09:00 4 10km以上 15 82 1014.9
21 08:00 東南東 2 10km以上 15 88 1014.7
21 07:00 3 10km以上 14 88 1014.6
21 06:00 2 10km以上 14 88 1014.3
21 05:00 3 10km以上 12 94 1014.3
21 04:00 3 10km以上 12 94 1014.4
21 03:00 東南東 3 10km以上 11 94 1014.4
21 02:00 3 10km以上 13 94 1014.6
21 01:00 3 10km以上 13 88 1014.8
21 00:00 東北東 3 10km以上 15 82 1015.1
20 23:00 東北東 3 10km以上 15 82 1015.4
20 22:00 北東 3 10km以上 16 82 1015.4
20 21:00 2 10km以上 16 77 1015.6
20 20:00 3 10km以上 17 72 1015.9
20 19:00 南東 3 10km以上 18 68 1016.1
20 18:00 南東 4 10km以上 20 60 1016.2
20 17:00 南東 3 10km以上 20 60 1016.6
20 16:00 南南東 3 10km以上 21 60 1016.9
20 15:00 南東 4 10km以上 20 64 1017.5
20 14:00 東南東 5 10km以上 20 64 1018
20 13:00 5 10km以上 20 68 1018.5
CYVR 221700Z 11008KT 25SM FEW016 FEW025 FEW240 16/13 A3000 RMK CU1SC1CI1 CU TR CI TR SLP159 DENSITY ALT 100FT
CYVR 221600Z 10008KT 25SM FEW012 FEW020 FEW090 FEW240 15/13 A2999 RMK CU1SC1AC1CC1 CU TR SC TR CC TR SLP156
CYVR 221500Z 10006KT 15SM FEW010 FEW015 FEW060 FEW090 14/13 A2999 RMK SF1SC1SC1AC1 SF TR SC TR AC TR CU ASOCTD LWR SC SLP157
CYVR 221400Z 13006KT 15SM FEW010 FEW022 SCT045 BKN080 13/13 A2998 RMK SF1SC2SC1AC2 SF TR SLP153
CYVR 221300Z 09007KT 15SM FEW018 SCT062 BKN074 14/13 A2997 RMK SC2SC2AC2 SLP150
CYVR 221200Z 07003KT 15SM FEW030 BKN060 BKN071 15/14 A2997 RMK SC1SC5AC1 SLP149
CYVR 221100Z 13006KT 15SM FEW030 SCT049 BKN066 BKN075 BKN200 14/13 A2996 RMK SC1SC3AC2AC1CI1 SC TR CI TR SLP147
CYVR 221000Z 10005KT 15SM FEW031 BKN047 BKN065 BKN200 15/14 A2995 RMK SC1SC5SC2CI1 SC TR CI TR SLP144
CYVR 220900Z 14005KT 15SM FEW032 BKN050 OVC067 15/14 A2995 RMK SC1SC4AC3 INTMT - RA SLP145
CYVR 220843Z 08004KT 15SM -RA FEW032 BKN049 OVC070 15/14 A2995 RMK SC1SC4AC3 SLP144
CYVR 220807Z 10003KT 15SM FEW034 BKN058 OVC067 15/14 A2996 RMK SC1SC4AC3 SLP146
CYVR 220749Z 12004KT 12SM -RA FEW031 BKN054 OVC068 15/14 A2996 RMK SC1SC5AC2 SLP147 DENSITY ALT 100FT
CYVR 220700Z 07004KT 15SM FEW034 BKN052 OVC061 16/14 A2996 RMK SC1SC4SC3 SLP146 DENSITY ALT 100FT
CYVR 220617Z 00000KT 15SM FEW034 BKN059 OVC073 16/14 A2995 RMK SC1SC4AC3 SLP145 DENSITY ALT 100FT
CYVR 220600Z CCA 09005KT 15SM -RA FEW032 BKN054 OVC063 16/14 A2995 RMK SC1SC5SC2 SLP144 DENSITY ALT 100FT
CYVR 220544Z 11005KT 12SM -RA FEW038 BKN049 OVC060 16/14 A2995 RMK SC1SC4SC3 SLP145 DENSITY ALT 100FT
CYVR 220500Z 04003KT 360V070 15SM FEW037 BKN059 BKN075 16/14 A2995 RMK SC1SC5AC1 SLP144 DENSITY ALT 100FT
CYVR 220446Z 02003KT 350V070 15SM FEW038 BKN059 BKN075 16/13 A2995 RMK SC1SC5AC1 SLP143 DENSITY ALT 100FT
CYVR 220409Z 15004KT 15SM -RA FEW035 BKN058 BKN072 17/13 A2995 RMK SC1SC5AC1 SLP145 DENSITY ALT 200FT
CYVR 220300Z 14002KT 15SM FEW038 BKN057 BKN078 18/13 A2994 RMK SC2SC3AC2 SLP139 DENSITY ALT 300FT
CYVR 220200Z VRB05KT 15SM FEW030 SCT038 OVC063 17/14 A2993 RMK CU1SC4SC4 CU TR SLP138 DENSITY ALT 300FT
CYVR 220100Z 21005KT 25SM FEW028 BKN032 BKN080 BKN260 18/14 A2993 RMK CF1SC5AC2CI1 CF TR CI TR SLP138 DENSITY ALT 400FT
CYVR 220043Z 17007KT 25SM -RA FEW025 BKN031 BKN110 BKN260 19/13 A2993 RMK CF1SC7AC1CI1 CF TR AC TR CI TR SLP137 DENSITY ALT 500FT
CYVR 220000Z 17007KT 30SM FEW035 FEW045 BKN074 BKN180 BKN210 20/12 A2993 RMK CU1SC1AC5AC1CI1 CU TR SC TR DIST SH W SLP137 DENSITY ALT 600FT
CYVR 212300Z 14007KT 110V180 30SM FEW035 SCT064 SCT090 BKN180 BKN260 20/13 A2993 RMK CU1SC3AC1AC1CI2 CU TR SLP138 DENSITY ALT 700FT
CYVR 212200Z 15009KT 120V230 30SM FEW035 FEW045 SCT080 BKN180 BKN220 21/12 A2994 RMK CU1SC1AC2AC2CI1 SLP140 DENSITY ALT 700FT
CYVR 212100Z 14006KT 100V240 30SM FEW036 FEW045 FEW090 SCT180 BKN210 20/13 A2995 RMK CU1SC2AC1AC1CI2 CU TR AC TR SLP142 DENSITY ALT 600FT
CYVR 212000Z 11006KT 090V160 30SM FEW030 FEW045 FEW090 FEW180 BKN220 20/13 A2995 RMK CU1SC1AC1AC1CI4 CU TR SC TR SLP144 DENSITY ALT 600FT
CYVR 211900Z 11008KT 25SM FEW020 BKN044 BKN090 BKN260 18/12 A2997 RMK CU1SC7AC1CI1 CU TR AC TR CI TR SLP149 DENSITY ALT 300FT
CYVR 211800Z 10007KT 25SM BKN040 BKN097 BKN260 16/13 A2997 RMK SC6AC1CI1 CI TR CU ASOCTD N SLP149 DENSITY ALT 100FT
CYVR 211700Z 08007KT 25SM BKN046 BKN095 16/13 A2997 RMK SC5AC2 SLP149 DENSITY ALT 100FT
CYVR 211600Z 09007KT 25SM BKN046 BKN120 15/12 A2997 RMK SC7AC1 AC TR SLP149
CYVR 211500Z 12003KT 100V170 25SM BKN043 BKN120 15/13 A2996 RMK SC7AC1 AC TR SLP147
CYVR 211400Z 10005KT 25SM BKN043 14/12 A2996 RMK SC7 SLP146
CYVR 211300Z 09003KT 15SM BKN040 14/12 A2995 RMK SC6 SLP143
CYVR 211200Z 08005KT 15SM FEW039 SCT240 12/11 A2995 RMK SC1CI1 SLP143
CYVR 211100Z 09006KT 15SM FEW037 SCT240 12/11 A2995 RMK SC2CI1 SLP144
CYVR 211000Z 11005KT 15SM FEW150 FEW240 11/10 A2995 RMK AC1CI1 AC TR SLP144
CYVR 210900Z 08005KT 15SM FEW160 FEW200 13/12 A2996 RMK AC1CI1 AC TR CI TR SLP146
CYVR 210800Z 08005KT 15SM FEW160 FEW210 13/11 A2996 RMK AC1CI1 AC TR CI TR SLP148
CYVR 210700Z 07006KT 15SM FEW080 FEW220 15/12 A2997 RMK AC1CI1 AC TR SLP151
CYVR 210600Z 06005KT 15SM FEW040 FEW220 15/12 A2998 RMK SC1CI2 SC TR SLP154
CYVR 210500Z 05006KT 15SM FEW045 FEW210 16/13 A2998 RMK SC1CI1 SC TR SLP154 DENSITY ALT 100FT
CYVR 210400Z 09004KT 15SM FEW045 FEW080 FEW210 16/12 A2999 RMK SC1AC1CI1 SC TR AC TR SLP156 DENSITY ALT 100FT
CYVR 210300Z 08005KT 15SM FEW028 FEW045 FEW088 FEW210 17/12 A3000 RMK CU1SC1AC1CI1 CU TR SC TR AC TR SLP159 DENSITY ALT 200FT
CYVR 210200Z 14006KT 20SM FEW028 FEW045 FEW170 FEW210 18/12 A3000 RMK CU1SC1AC1CI2 CU TR SC TR AC TR SLP161 DENSITY ALT 300FT
CYVR 210100Z 14007KT 130V190 25SM FEW032 FEW045 FEW210 20/12 A3000 RMK CU1SC1CI2 CU TR SC TR SLP162 DENSITY ALT 500FT
CYVR 210000Z 14005KT 110V180 25SM FEW032 FEW045 FEW088 FEW210 FEW270 20/12 A3002 RMK CU1SC1AC1CI1CC1 SC TR AC TR CC TR CONTRAILS SLP166 DENSITY ALT 600FT
CYVR 202300Z 15006KT 060V170 25SM FEW032 FEW045 BKN210 BKN270 21/13 A3003 RMK CU1SC1CI6CC1 SC TR CC TR SLP169 DENSITY ALT 600FT
CYVR 202200Z 13008KT 090V150 25SM FEW028 SCT180 BKN200 BKN270 20/13 A3004 RMK CU1AS2CI4CC1 CC TR SLP175 DENSITY ALT 500FT
CYVR 202100Z 12010KT 090V160 25SM FEW028 FEW060 FEW088 BKN210 BKN270 20/13 A3006 RMK CU1SC1AC1CI5CC1 SC TR AC TR SLP180 DENSITY ALT 500FT
CYVR 202000Z 10009KT 25SM FEW024 FEW032 FEW088 BKN200 BKN270 20/14 A3007 RMK CU1SC1AC1CI5CC1 SC TR CC TR SLP185 DENSITY ALT 400FT